Time;durP1;ratioP1;P1;durP2;ratioP2;P2;SDS_P1;SDS_P2;PMS_P1;PMS_P2;Temp;Humidity;BMP_temperature;BMP_pressure;BME280_temperature;BME280_humidity;BME280_pressure;Samples;Min_cycle;Max_cycle;Signal;HPM_P1;HPM_P2
2021/01/02 11:13:27;;;;;;;11.65;7.40;;;0.40;99.90;;;;;;2077855;28;20514;-70
2021/01/02 11:14:28;;;;;;;14.23;10.33;;;0.30;99.90;;;;;;2089823;28;20587;-70
2021/01/02 11:15:29;;;;;;;14.53;9.70;;;0.30;99.90;;;;;;2082933;28;20166;-71
2021/01/02 11:16:39;;;;;;;14.90;10.87;;;0.30;99.90;;;;;;2076798;28;20188;-68
2021/01/02 11:17:40;;;;;;;13.35;10.05;;;0.40;99.90;;;;;;2092990;27;20172;-68
2021/01/02 11:18:40;;;;;;;13.57;10.13;;;0.50;99.90;;;;;;2077279;28;20188;-68
2021/01/02 11:19:45;;;;;;;16.03;11.70;;;0.60;99.90;;;;;;2065458;28;20648;-68
2021/01/02 11:20:47;;;;;;;16.25;11.32;;;0.70;99.90;;;;;;2061960;28;20170;-68
2021/01/02 11:21:51;;;;;;;14.10;10.57;;;0.70;99.90;;;;;;2071009;28;20828;-68
2021/01/02 11:22:51;;;;;;;11.20;8.43;;;0.80;99.90;;;;;;2103891;28;20231;-72
2021/01/02 11:23:52;;;;;;;11.27;8.17;;;0.90;99.90;;;;;;2077164;28;20194;-70
2021/01/02 11:24:53;;;;;;;10.23;8.18;;;0.90;99.90;;;;;;2070859;28;20235;-72
2021/01/02 11:25:54;;;;;;;11.00;7.93;;;1.00;99.90;;;;;;2077107;28;20703;-71
2021/01/02 11:26:59;;;;;;;11.20;8.33;;;1.00;99.90;;;;;;2073090;28;20217;-75
2021/01/02 11:28:02;;;;;;;11.52;8.88;;;1.00;99.90;;;;;;2084517;28;20183;-73
2021/01/02 11:29:04;;;;;;;12.30;9.13;;;1.00;99.90;;;;;;2077939;28;20190;-75
2021/01/02 11:30:05;;;;;;;10.93;8.02;;;1.00;99.90;;;;;;2068908;28;20182;-73
2021/01/02 11:31:06;;;;;;;11.98;8.68;;;1.00;99.90;;;;;;2083108;28;20277;-70
2021/01/02 11:32:10;;;;;;;14.10;10.63;;;1.00;99.90;;;;;;2103308;28;20178;-73
2021/01/02 11:33:11;;;;;;;14.07;10.80;;;0.90;99.90;;;;;;2070577;28;20205;-72
2021/01/02 11:34:18;;;;;;;14.50;11.37;;;0.80;99.90;;;;;;2078516;28;20320;-75
2021/01/02 11:35:19;;;;;;;15.77;11.55;;;0.80;99.90;;;;;;2081214;28;20259;-73
2021/01/02 11:36:19;;;;;;;11.57;8.70;;;0.80;99.90;;;;;;2068906;28;20182;-75
2021/01/02 11:37:20;;;;;;;16.57;13.27;;;0.90;99.90;;;;;;2073359;28;20636;-75
2021/01/02 11:38:21;;;;;;;16.83;12.03;;;0.80;99.90;;;;;;2086532;28;20181;-74
2021/01/02 11:39:22;;;;;;;14.70;10.30;;;0.80;99.90;;;;;;2111801;28;20166;-75
2021/01/02 11:40:23;;;;;;;12.93;9.65;;;0.90;99.90;;;;;;2105735;28;20524;-72
2021/01/02 11:41:43;;;;;;;10.47;7.93;;;0.90;99.90;;;;;;2090862;28;20206;-73
2021/01/02 11:42:44;;;;;;;9.95;7.38;;;0.80;99.90;;;;;;2110151;28;20633;-73
2021/01/02 11:43:45;;;;;;;9.95;7.32;;;0.70;99.90;;;;;;2076639;28;20572;-73
2021/01/02 11:44:46;;;;;;;12.90;8.57;;;0.60;99.90;;;;;;2072530;28;20175;-73
2021/01/02 11:45:47;;;;;;;12.93;8.47;;;0.50;99.90;;;;;;2081977;28;20192;-75
2021/01/02 11:46:51;;;;;;;10.60;7.65;;;0.50;99.90;;;;;;2058959;28;20238;-74
2021/01/02 11:47:51;;;;;;;12.23;8.30;;;0.40;99.90;;;;;;2069479;28;20177;-76
2021/01/02 11:48:52;;;;;;;11.13;7.83;;;0.30;99.90;;;;;;2084211;28;20640;-75
2021/01/02 11:49:53;;;;;;;9.97;7.23;;;0.30;99.90;;;;;;2113167;28;20189;-74
2021/01/02 11:50:53;;;;;;;11.10;7.47;;;0.30;99.90;;;;;;2086293;28;20209;-74
2021/01/02 11:51:57;;;;;;;8.77;6.63;;;0.30;99.90;;;;;;2111587;28;20262;-75
2021/01/02 11:52:58;;;;;;;10.15;6.90;;;0.30;99.90;;;;;;2101278;28;20980;-74
2021/01/02 11:53:59;;;;;;;12.67;7.60;;;0.30;99.90;;;;;;2069277;28;20186;-74
2021/01/02 11:55:00;;;;;;;10.30;7.27;;;0.30;99.90;;;;;;2073325;28;20182;-74
2021/01/02 11:56:01;;;;;;;11.60;7.80;;;0.30;99.90;;;;;;2075188;28;20187;-72
2021/01/02 11:57:04;;;;;;;11.68;7.60;;;0.40;99.90;;;;;;2107221;28;20184;-73
2021/01/02 11:58:05;;;;;;;10.20;7.38;;;0.30;99.90;;;;;;2071259;28;20215;-72
2021/01/02 11:59:06;;;;;;;8.97;6.87;;;0.30;99.90;;;;;;2069237;28;20178;-75
2021/01/02 12:00:11;;;;;;;9.97;7.13;;;0.40;99.90;;;;;;2077144;28;20173;-75
2021/01/02 12:01:11;;;;;;;9.48;7.10;;;0.40;99.90;;;;;;2077675;28;20204;-75
2021/01/02 12:02:12;;;;;;;10.00;6.80;;;0.30;99.90;;;;;;2077552;28;20206;-76
2021/01/02 12:03:13;;;;;;;10.03;6.57;;;0.30;99.90;;;;;;2086777;28;20208;-77
2021/01/02 12:04:22;;;;;;;9.83;6.33;;;0.30;99.90;;;;;;2062123;28;20182;-76
2021/01/02 12:05:23;;;;;;;8.40;5.78;;;0.30;99.90;;;;;;2060425;28;20178;-74
2021/01/02 12:06:31;;;;;;;9.33;6.20;;;0.30;99.90;;;;;;2077116;28;20170;-74
2021/01/02 12:07:32;;;;;;;10.20;6.35;;;0.30;99.90;;;;;;2072032;28;20182;-75
2021/01/02 12:08:32;;;;;;;9.53;6.57;;;0.30;99.90;;;;;;2069425;28;20181;-76
2021/01/02 12:09:33;;;;;;;7.97;6.27;;;0.20;99.90;;;;;;2081942;28;20174;-74
2021/01/02 12:10:34;;;;;;;10.03;6.70;;;0.30;99.90;;;;;;2112085;28;20645;-75
2021/01/02 12:11:39;;;;;;;8.63;6.40;;;0.30;99.90;;;;;;2111395;28;20208;-75
2021/01/02 12:12:39;;;;;;;8.75;6.45;;;0.40;99.90;;;;;;2103567;28;20705;-75
2021/01/02 12:13:40;;;;;;;10.30;6.43;;;0.40;99.90;;;;;;2068747;28;20350;-75
2021/01/02 12:14:41;;;;;;;9.03;6.50;;;0.40;99.90;;;;;;2068918;28;20197;-73
2021/01/02 12:15:42;;;;;;;8.87;6.13;;;0.40;99.90;;;;;;2078183;28;20190;-75
2021/01/02 12:16:47;;;;;;;9.00;6.23;;;0.50;99.90;;;;;;2061086;28;20194;-75
2021/01/02 12:17:47;;;;;;;10.00;6.38;;;0.40;99.90;;;;;;2100797;28;20179;-75
2021/01/02 12:18:48;;;;;;;8.77;6.57;;;0.40;99.90;;;;;;2066936;28;20249;-76
2021/01/02 12:19:49;;;;;;;10.77;7.30;;;0.50;99.90;;;;;;2091327;28;20182;-74
2021/01/02 12:20:49;;;;;;;9.67;6.87;;;0.50;99.90;;;;;;2070389;28;20178;-74
2021/01/02 12:21:55;;;;;;;9.73;7.27;;;0.50;99.90;;;;;;2077771;28;20593;-76
2021/01/02 12:22:56;;;;;;;10.63;6.93;;;0.60;99.90;;;;;;2085536;28;20267;-74
2021/01/02 12:23:57;;;;;;;10.83;8.03;;;0.70;99.90;;;;;;2111644;28;20191;-75
2021/01/02 12:24:58;;;;;;;9.27;6.63;;;0.70;99.90;;;;;;2095694;28;20183;-74
2021/01/02 12:25:58;;;;;;;9.20;6.00;;;0.80;99.90;;;;;;2071528;28;20276;-75
2021/01/02 12:27:04;;;;;;;9.40;6.37;;;0.80;99.90;;;;;;2071887;28;20186;-74
2021/01/02 12:28:05;;;;;;;9.15;6.05;;;0.80;99.90;;;;;;2071544;28;20180;-73
2021/01/02 12:29:06;;;;;;;22.63;16.57;;;0.80;99.90;;;;;;2069427;28;20176;-75
2021/01/02 12:30:08;;;;;;;14.43;11.20;;;0.80;99.90;;;;;;2081465;28;20187;-74
2021/01/02 12:31:15;;;;;;;10.43;7.70;;;0.60;99.90;;;;;;2050839;28;20254;-69
2021/01/02 12:32:15;;;;;;;8.80;6.47;;;0.60;99.90;;;;;;2061597;28;20209;-68
2021/01/02 12:33:16;;;;;;;9.00;6.03;;;0.60;99.90;;;;;;2067428;28;20212;-69
2021/01/02 12:34:24;;;;;;;10.57;6.30;;;0.60;99.90;;;;;;2056171;28;20641;-75
2021/01/02 12:35:27;;;;;;;13.05;7.32;;;0.70;99.90;;;;;;2062032;28;20182;-72
2021/01/02 12:36:35;;;;;;;11.35;7.03;;;0.70;99.90;;;;;;2063861;28;20217;-72
2021/01/02 12:37:36;;;;;;;8.07;6.25;;;0.70;99.90;;;;;;2094861;28;20664;-70
2021/01/02 12:38:41;;;;;;;25.47;16.07;;;0.80;99.90;;;;;;2097257;28;20180;-74
2021/01/02 12:39:45;;;;;;;21.48;14.98;;;0.80;99.90;;;;;;2078969;28;20209;-77
2021/01/02 12:40:46;;;;;;;9.52;6.70;;;0.90;99.90;;;;;;2096204;28;20188;-71
2021/01/02 12:41:47;;;;;;;9.57;6.60;;;0.90;99.90;;;;;;2079588;28;20209;-73
2021/01/02 12:42:48;;;;;;;9.40;7.15;;;0.90;99.90;;;;;;2076083;28;20197;-72
2021/01/02 12:43:48;;;;;;;13.13;10.00;;;0.50;99.90;;;;;;2098576;28;20516;-72
2021/01/02 12:44:49;;;;;;;9.63;6.83;;;0.40;99.90;;;;;;2069671;28;20249;-77
2021/01/02 12:45:50;;;;;;;9.80;6.53;;;0.50;99.90;;;;;;2066294;28;20264;-76
2021/01/02 12:47:09;;;;;;;9.83;6.47;;;0.60;99.90;;;;;;2065518;28;20178;-77
2021/01/02 12:48:10;;;;;;;7.63;5.75;;;0.70;99.90;;;;;;2077561;28;20180;-76
2021/01/02 12:49:15;;;;;;;9.13;6.60;;;0.70;99.90;;;;;;2086449;28;20186;-74
2021/01/02 12:50:16;;;;;;;10.95;6.05;;;0.70;99.90;;;;;;2063507;28;20194;-77
2021/01/02 12:51:21;;;;;;;10.17;5.83;;;0.70;99.90;;;;;;2080283;28;20174;-77
2021/01/02 12:52:22;;;;;;;9.77;6.75;;;0.60;99.90;;;;;;2098711;28;20218;-75
2021/01/02 12:53:23;;;;;;;12.20;9.07;;;0.40;99.90;;;;;;2081589;28;20602;-75
2021/01/02 12:54:24;;;;;;;11.53;9.33;;;0.40;99.90;;;;;;2071619;28;20181;-73
2021/01/02 12:55:25;;;;;;;12.02;8.88;;;0.30;99.90;;;;;;2087875;28;20720;-74
2021/01/02 12:56:26;;;;;;;13.77;8.97;;;0.20;99.90;;;;;;2105848;28;20245;-70
2021/01/02 12:57:27;;;;;;;12.32;8.93;;;0.10;99.90;;;;;;2071191;28;20668;-71
2021/01/02 12:58:27;;;;;;;9.67;7.37;;;0.20;99.90;;;;;;2063380;28;20185;-74
2021/01/02 12:59:32;;;;;;;10.23;8.10;;;0.30;99.90;;;;;;2090093;28;20199;-75
2021/01/02 13:00:33;;;;;;;10.07;7.22;;;0.20;99.90;;;;;;2079070;28;20679;-72
2021/01/02 13:01:39;;;;;;;8.82;6.63;;;0.30;99.90;;;;;;2101281;28;20582;-75
2021/01/02 13:02:40;;;;;;;12.10;7.55;;;0.20;99.90;;;;;;2083092;28;20198;-72
2021/01/02 13:03:40;;;;;;;10.63;7.80;;;0.30;99.90;;;;;;2067152;28;20648;-74
2021/01/02 13:04:41;;;;;;;8.97;6.77;;;0.30;99.90;;;;;;2065476;28;20221;-75
2021/01/02 13:05:44;;;;;;;10.77;7.40;;;0.30;99.90;;;;;;2078731;28;20177;-73
2021/01/02 13:06:49;;;;;;;11.20;8.05;;;0.30;99.90;;;;;;2057757;28;20265;-75
2021/01/02 13:07:50;;;;;;;9.10;7.05;;;0.30;99.90;;;;;;2089533;28;20206;-71
2021/01/02 13:08:51;;;;;;;13.30;11.67;;;0.30;99.90;;;;;;2081909;28;20280;-73
2021/01/02 13:09:51;;;;;;;9.97;7.80;;;0.20;99.90;;;;;;2105619;28;20564;-70
2021/01/02 13:10:52;;;;;;;14.93;12.80;;;0.20;99.90;;;;;;2090572;28;20168;-72
2021/01/02 13:11:54;;;;;;;11.60;10.10;;;0.20;99.90;;;;;;2105642;28;20162;-70
2021/01/02 13:12:54;;;;;;;11.38;8.85;;;0.20;99.90;;;;;;2078653;28;20644;-72
2021/01/02 13:13:55;;;;;;;15.73;12.63;;;0.30;99.90;;;;;;2093783;28;20191;-70
2021/01/02 13:14:56;;;;;;;13.43;10.27;;;0.30;99.90;;;;;;2071612;28;20183;-70
2021/01/02 13:15:56;;;;;;;13.60;11.47;;;0.20;99.90;;;;;;2063187;28;20186;-74
2021/01/02 13:17:01;;;;;;;13.13;9.73;;;0.30;99.90;;;;;;2066469;28;20833;-74
2021/01/02 13:18:02;;;;;;;9.98;7.60;;;0.40;99.90;;;;;;2097910;28;20183;-72
2021/01/02 13:19:03;;;;;;;16.20;11.67;;;0.30;99.90;;;;;;2076273;28;20555;-70
2021/01/02 13:20:05;;;;;;;11.57;9.38;;;0.30;99.90;;;;;;2055423;28;20190;-71
2021/01/02 13:21:08;;;;;;;14.30;9.10;;;0.40;99.90;;;;;;2076826;28;20190;-70
2021/01/02 13:22:09;;;;;;;11.43;8.35;;;0.40;99.90;;;;;;2063196;28;20185;-71
2021/01/02 13:23:10;;;;;;;10.27;7.25;;;0.40;99.90;;;;;;2066684;28;20654;-71
2021/01/02 13:24:12;;;;;;;11.57;7.73;;;0.50;99.90;;;;;;2071047;28;20182;-74
2021/01/02 13:25:15;;;;;;;11.13;7.95;;;0.50;99.90;;;;;;2063015;28;20483;-73
2021/01/02 13:26:16;;;;;;;8.90;6.60;;;0.50;99.90;;;;;;2063561;28;20183;-72
2021/01/02 13:27:17;;;;;;;10.40;7.43;;;0.50;99.90;;;;;;2075392;28;20528;-73
2021/01/02 13:28:18;;;;;;;12.90;8.55;;;0.40;99.90;;;;;;2055186;28;20294;-73
2021/01/02 13:29:22;;;;;;;10.23;7.77;;;0.30;99.90;;;;;;2068263;28;20189;-73
2021/01/02 13:30:23;;;;;;;11.35;8.32;;;0.30;99.90;;;;;;2068059;28;20190;-73
2021/01/02 13:31:24;;;;;;;10.85;7.82;;;0.20;99.90;;;;;;2093945;28;20171;-73
2021/01/02 13:32:24;;;;;;;9.77;7.43;;;0.30;99.90;;;;;;2100047;28;20680;-73
2021/01/02 13:33:25;;;;;;;11.00;8.00;;;0.30;99.90;;;;;;2095073;28;20288;-73
2021/01/02 13:34:26;;;;;;;13.87;8.53;;;0.20;99.90;;;;;;2070192;28;20264;-73
2021/01/02 13:35:27;;;;;;;11.18;7.97;;;0.30;99.90;;;;;;2095792;28;20182;-74
2021/01/02 13:36:28;;;;;;;10.87;7.67;;;0.20;99.90;;;;;;2104614;28;20256;-75
2021/01/02 13:37:29;;;;;;;11.83;7.07;;;0.20;99.90;;;;;;2078747;28;20548;-72
2021/01/02 13:38:30;;;;;;;9.80;7.20;;;0.10;99.90;;;;;;2072156;28;20238;-73
2021/01/02 13:39:32;;;;;;;12.32;8.05;;;0.10;99.90;;;;;;2099651;28;20182;-73
2021/01/02 13:40:33;;;;;;;10.85;7.70;;;0.10;99.90;;;;;;2092270;28;20611;-72
2021/01/02 13:41:35;;;;;;;10.37;7.30;;;0.00;99.90;;;;;;2070667;28;20192;-72
2021/01/02 13:42:36;;;;;;;10.48;7.60;;;-0.10;99.90;;;;;;2071887;28;20291;-72
2021/01/02 13:43:37;;;;;;;10.52;7.03;;;-0.20;99.90;;;;;;2103290;28;20187;-73
2021/01/02 13:44:38;;;;;;;11.23;8.30;;;-0.30;99.90;;;;;;2063273;28;20211;-73
2021/01/02 13:45:38;;;;;;;11.93;8.32;;;-0.30;99.90;;;;;;2071392;28;20178;-72
2021/01/02 13:46:39;;;;;;;10.43;7.67;;;-0.40;99.90;;;;;;2071972;28;20235;-73
2021/01/02 13:47:40;;;;;;;10.73;7.70;;;-0.50;99.90;;;;;;2105027;28;20185;-73
2021/01/02 13:48:41;;;;;;;12.97;8.80;;;-0.50;99.90;;;;;;2097045;28;20255;-73
2021/01/02 13:49:46;;;;;;;12.00;8.43;;;-0.40;99.90;;;;;;2055489;28;20183;-73
2021/01/02 13:50:47;;;;;;;12.10;8.63;;;-0.30;99.90;;;;;;2057566;28;20186;-74
2021/01/02 13:51:47;;;;;;;12.97;8.63;;;-0.40;99.90;;;;;;2070936;28;20178;-73
2021/01/02 13:52:48;;;;;;;12.60;8.97;;;-0.40;99.90;;;;;;2075826;28;20197;-73
2021/01/02 13:53:49;;;;;;;11.93;8.57;;;-0.30;99.90;;;;;;2105759;28;20193;-72
2021/01/02 13:54:53;;;;;;;14.20;9.05;;;-0.30;99.90;;;;;;2100282;28;20163;-73
2021/01/02 13:55:54;;;;;;;12.82;8.95;;;-0.40;99.90;;;;;;2063946;28;20191;-70
2021/01/02 13:56:55;;;;;;;12.67;9.27;;;-0.40;99.90;;;;;;2079025;28;20648;-74
2021/01/02 13:57:55;;;;;;;14.17;8.90;;;-0.30;99.90;;;;;;2078470;28;20201;-74
2021/01/02 13:59:00;;;;;;;11.60;8.60;;;-0.30;99.90;;;;;;2105883;28;20248;-73
2021/01/02 14:00:04;;;;;;;13.35;8.45;;;-0.30;99.90;;;;;;2105779;28;20177;-74
2021/01/02 14:01:06;;;;;;;15.82;10.30;;;-0.30;99.90;;;;;;2067734;28;20178;-74
2021/01/02 14:02:07;;;;;;;19.20;11.30;;;-0.30;99.90;;;;;;2062980;28;20167;-75
2021/01/02 14:03:07;;;;;;;19.13;11.00;;;-0.20;99.90;;;;;;2086499;28;20831;-74
2021/01/02 14:04:09;;;;;;;16.37;10.37;;;-0.20;99.90;;;;;;2106711;28;20170;-72
2021/01/02 14:05:10;;;;;;;17.10;10.90;;;-0.20;99.90;;;;;;2089714;28;20178;-72
2021/01/02 14:06:12;;;;;;;14.48;9.68;;;-0.30;99.90;;;;;;2070639;28;20666;-72
2021/01/02 14:07:12;;;;;;;13.20;8.82;;;-0.30;99.90;;;;;;2071556;28;20260;-72
2021/01/02 14:08:13;;;;;;;13.00;8.67;;;-0.30;99.90;;;;;;2070909;28;20200;-71
2021/01/02 14:09:14;;;;;;;13.37;8.93;;;-0.30;99.90;;;;;;2089659;28;20696;-71
2021/01/02 14:10:15;;;;;;;12.85;8.73;;;-0.30;99.90;;;;;;2105764;28;20183;-72
2021/01/02 14:11:19;;;;;;;13.27;8.67;;;-0.20;99.90;;;;;;2085192;28;20186;-72
2021/01/02 14:12:19;;;;;;;13.95;9.90;;;-0.20;99.90;;;;;;2071486;28;20223;-72
2021/01/02 14:13:20;;;;;;;14.13;9.30;;;-0.20;99.90;;;;;;2093857;28;20215;-73
2021/01/02 14:14:21;;;;;;;13.23;8.83;;;-0.20;99.90;;;;;;2075110;28;20185;-72
2021/01/02 14:15:22;;;;;;;13.10;8.97;;;-0.20;99.90;;;;;;2071340;28;20261;-72
2021/01/02 14:16:23;;;;;;;14.93;9.80;;;-0.30;99.90;;;;;;2046705;28;20182;-72
2021/01/02 14:17:24;;;;;;;12.70;7.82;;;-0.30;99.90;;;;;;2060566;28;20247;-73
2021/01/02 14:18:25;;;;;;;11.40;7.70;;;-0.30;99.90;;;;;;2070793;28;20730;-72
2021/01/02 14:19:28;;;;;;;11.10;7.77;;;-0.30;99.90;;;;;;2098790;28;20175;-72
2021/01/02 14:20:29;;;;;;;11.65;7.90;;;-0.30;99.90;;;;;;2095057;28;20177;-71
2021/01/02 14:21:30;;;;;;;11.13;7.70;;;-0.20;99.90;;;;;;2068903;28;20731;-72
2021/01/02 14:22:30;;;;;;;9.67;7.37;;;-0.20;99.90;;;;;;2070701;28;20212;-72
2021/01/02 14:23:32;;;;;;;10.60;7.30;;;-0.20;99.90;;;;;;2099297;28;20173;-71
2021/01/02 14:24:34;;;;;;;17.77;10.98;;;-0.30;99.90;;;;;;2105066;28;20177;-71
2021/01/02 14:25:34;;;;;;;12.13;6.95;;;-0.20;99.90;;;;;;2076295;28;20180;-72
2021/01/02 14:26:35;;;;;;;14.90;9.23;;;-0.20;99.90;;;;;;2071463;28;20210;-71
2021/01/02 14:27:36;;;;;;;12.03;8.37;;;-0.20;99.90;;;;;;2073923;28;20230;-72
2021/01/02 14:28:37;;;;;;;11.07;7.73;;;-0.30;99.90;;;;;;2063362;28;20205;-72
2021/01/02 14:29:37;;;;;;;10.13;7.23;;;-0.20;99.90;;;;;;2102188;28;20182;-71
2021/01/02 14:30:38;;;;;;;10.30;7.30;;;-0.30;99.90;;;;;;2104948;28;20171;-72
2021/01/02 14:31:42;;;;;;;10.43;7.63;;;-0.30;99.90;;;;;;2071387;28;20178;-71
2021/01/02 14:32:43;;;;;;;10.18;6.65;;;-0.20;99.90;;;;;;2059743;28;20210;-71
2021/01/02 14:33:43;;;;;;;10.10;7.33;;;-0.20;99.90;;;;;;2096421;28;20661;-71
2021/01/02 14:34:44;;;;;;;11.30;7.70;;;-0.10;99.90;;;;;;2095073;28;20237;-70
2021/01/02 14:35:45;;;;;;;10.20;7.07;;;-0.20;99.90;;;;;;2070745;28;20191;-71
2021/01/02 14:36:52;;;;;;;11.20;8.27;;;-0.20;99.90;;;;;;2074295;28;20199;-72
2021/01/02 14:37:56;;;;;;;10.95;7.63;;;-0.30;99.90;;;;;;2106812;28;20174;-72
2021/01/02 14:38:59;;;;;;;10.88;7.53;;;-0.30;99.90;;;;;;2091052;28;20165;-71
2021/01/02 14:40:00;;;;;;;11.52;7.60;;;-0.20;99.90;;;;;;2073022;28;20186;-71
2021/01/02 14:41:02;;;;;;;11.37;7.43;;;-0.20;99.90;;;;;;2082359;28;20175;-70
2021/01/02 14:42:09;;;;;;;11.05;7.88;;;-0.20;99.90;;;;;;2096639;28;20250;-70
2021/01/02 14:43:10;;;;;;;11.43;7.63;;;-0.20;99.90;;;;;;2088282;28;20189;-71
2021/01/02 14:44:11;;;;;;;13.20;7.80;;;-0.20;99.90;;;;;;2067290;28;20908;-72
2021/01/02 14:45:12;;;;;;;11.93;7.27;;;-0.30;99.90;;;;;;2083936;28;20186;-70
2021/01/02 14:46:12;;;;;;;12.75;8.82;;;-0.30;99.90;;;;;;2096385;28;20182;-69
2021/01/02 14:47:13;;;;;;;11.73;7.67;;;-0.40;99.90;;;;;;2071778;28;20263;-70
2021/01/02 14:48:15;;;;;;;10.33;7.43;;;-0.40;99.90;;;;;;2070345;28;20655;-69
2021/01/02 14:49:17;;;;;;;12.27;7.68;;;-0.40;99.90;;;;;;2084057;28;20171;-69
2021/01/02 14:50:18;;;;;;;11.80;7.97;;;-0.40;99.90;;;;;;2104927;28;20183;-71
2021/01/02 14:51:20;;;;;;;13.52;8.38;;;-0.40;99.90;;;;;;2067507;28;20185;-70
2021/01/02 14:52:20;;;;;;;13.88;8.10;;;-0.50;99.90;;;;;;2070320;28;20201;-70
2021/01/02 14:53:21;;;;;;;11.43;8.23;;;-0.60;99.90;;;;;;2093994;28;20206;-69
2021/01/02 14:54:25;;;;;;;12.07;8.40;;;-0.60;99.90;;;;;;2105285;28;20170;-69
2021/01/02 14:55:27;;;;;;;11.15;8.00;;;-0.60;99.90;;;;;;2070415;28;20181;-69
2021/01/02 14:56:28;;;;;;;10.43;7.55;;;-0.50;99.90;;;;;;2062632;28;20753;-70
2021/01/02 14:57:30;;;;;;;12.10;8.20;;;-0.50;99.90;;;;;;2104711;28;20185;-69
2021/01/02 14:58:30;;;;;;;10.93;7.40;;;-0.50;99.90;;;;;;2104485;28;20178;-69
2021/01/02 14:59:34;;;;;;;11.83;8.23;;;-0.50;99.90;;;;;;2076141;28;20180;-69
2021/01/02 15:00:35;;;;;;;10.05;7.35;;;-0.60;99.90;;;;;;2062720;28;20590;-69
2021/01/02 15:01:37;;;;;;;11.20;7.73;;;-0.60;99.90;;;;;;2094912;28;20171;-69
2021/01/02 15:02:38;;;;;;;14.25;8.55;;;-0.50;99.90;;;;;;2062938;28;20671;-69
2021/01/02 15:03:39;;;;;;;13.00;8.27;;;-0.60;99.90;;;;;;2070863;28;20192;-69
2021/01/02 15:04:40;;;;;;;13.40;8.33;;;-0.60;99.90;;;;;;2072824;28;20416;-69
2021/01/02 15:05:40;;;;;;;12.93;7.93;;;-0.50;99.90;;;;;;2068274;28;20170;-70
2021/01/02 15:06:48;;;;;;;12.03;8.73;;;-0.60;99.90;;;;;;2062843;28;20227;-70
2021/01/02 15:07:49;;;;;;;11.43;8.15;;;-0.60;99.90;;;;;;2071959;28;20239;-70
2021/01/02 15:08:50;;;;;;;12.27;7.95;;;-0.60;99.90;;;;;;2077292;28;20184;-69
2021/01/02 15:09:51;;;;;;;14.33;8.77;;;-0.60;99.90;;;;;;2105423;28;20546;-69
2021/01/02 15:10:52;;;;;;;12.30;8.63;;;-0.60;99.90;;;;;;2098317;28;20249;-68
2021/01/02 15:12:06;;;;;;;12.10;8.37;;;-0.60;99.90;;;;;;2070603;28;20588;-68
2021/01/02 15:13:07;;;;;;;12.65;8.35;;;-0.60;99.90;;;;;;2078366;28;20907;-69
2021/01/02 15:14:08;;;;;;;12.43;8.40;;;-0.70;99.90;;;;;;2061739;28;20285;-70
2021/01/02 15:15:10;;;;;;;11.77;7.82;;;-0.70;99.90;;;;;;2067136;28;20615;-69
2021/01/02 15:16:10;;;;;;;13.00;8.40;;;-0.70;99.90;;;;;;2062321;28;20276;-70
2021/01/02 15:17:11;;;;;;;11.37;7.93;;;-0.80;99.90;;;;;;2087531;28;20188;-70
2021/01/02 15:18:12;;;;;;;11.07;7.87;;;-0.70;99.90;;;;;;2105413;28;20178;-71
2021/01/02 15:19:13;;;;;;;11.07;8.07;;;-0.70;99.90;;;;;;2088251;28;20185;-69
2021/01/02 15:20:14;;;;;;;11.95;8.10;;;-0.70;99.90;;;;;;2063109;28;20216;-69
2021/01/02 15:21:15;;;;;;;12.80;8.38;;;-0.70;99.90;;;;;;2047438;28;20187;-70
2021/01/02 15:22:16;;;;;;;11.57;8.13;;;-0.70;99.90;;;;;;2054265;28;20228;-70
2021/01/02 15:23:19;;;;;;;11.27;8.23;;;-0.70;99.90;;;;;;2067050;28;20773;-69
2021/01/02 15:24:20;;;;;;;12.73;8.68;;;-0.70;99.90;;;;;;2070035;28;20262;-69
2021/01/02 15:25:20;;;;;;;12.97;8.00;;;-0.70;99.90;;;;;;2071387;28;20230;-69
2021/01/02 15:26:29;;;;;;;13.57;8.63;;;-0.70;99.90;;;;;;2062741;28;20727;-71
2021/01/02 15:27:30;;;;;;;11.75;8.13;;;-0.80;99.90;;;;;;2073453;28;20186;-70
2021/01/02 15:28:31;;;;;;;12.67;8.53;;;-0.80;99.90;;;;;;2062520;28;20200;-70
2021/01/02 15:29:32;;;;;;;12.95;9.02;;;-0.80;99.90;;;;;;2068945;28;20265;-72
2021/01/02 15:30:33;;;;;;;12.88;8.70;;;-0.80;99.90;;;;;;2070306;28;20176;-70
2021/01/02 15:31:42;;;;;;;12.40;9.10;;;-0.90;99.90;;;;;;2061773;28;20208;-70
2021/01/02 15:32:42;;;;;;;13.63;8.80;;;-0.90;99.90;;;;;;2070308;28;20657;-72
2021/01/02 15:33:43;;;;;;;11.57;8.10;;;-0.80;99.90;;;;;;2070389;28;20173;-71
2021/01/02 15:34:44;;;;;;;12.13;8.20;;;-0.90;99.90;;;;;;2063656;28;20663;-70
2021/01/02 15:35:45;;;;;;;14.13;9.10;;;-0.90;99.90;;;;;;2070900;28;20168;-71
2021/01/02 15:36:46;;;;;;;11.83;7.80;;;-0.80;99.90;;;;;;2071482;28;20606;-69
2021/01/02 15:37:46;;;;;;;11.75;8.73;;;-0.80;99.90;;;;;;2070540;28;20177;-70
2021/01/02 15:38:47;;;;;;;13.00;9.37;;;-0.90;99.90;;;;;;2070457;28;20212;-71
2021/01/02 15:39:48;;;;;;;14.30;9.30;;;-0.90;99.90;;;;;;2062485;28;20213;-71
2021/01/02 15:40:57;;;;;;;13.73;8.98;;;-0.90;99.90;;;;;;2062315;28;20194;-70
2021/01/02 15:41:59;;;;;;;13.50;8.85;;;-1.00;99.90;;;;;;2063331;28;20177;-71
2021/01/02 15:43:00;;;;;;;14.38;9.90;;;-1.00;99.90;;;;;;2063784;28;20363;-71
2021/01/02 15:44:01;;;;;;;12.60;9.73;;;-1.00;99.90;;;;;;2054238;28;20218;-71
2021/01/02 15:45:06;;;;;;;13.20;9.50;;;-1.00;99.90;;;;;;2055175;28;20275;-70
2021/01/02 15:46:09;;;;;;;14.20;9.48;;;-1.00;99.90;;;;;;2063058;28;20232;-70
2021/01/02 15:47:14;;;;;;;13.65;9.48;;;-1.00;99.90;;;;;;2054725;28;20661;-71
2021/01/02 15:48:15;;;;;;;16.73;10.68;;;-1.10;99.90;;;;;;2063103;28;20200;-71
2021/01/02 15:49:18;;;;;;;15.17;10.53;;;-1.00;99.90;;;;;;2070495;28;20214;-70
2021/01/02 15:50:19;;;;;;;19.10;11.25;;;-1.00;99.90;;;;;;2069739;28;20222;-70
2021/01/02 15:51:21;;;;;;;17.30;11.13;;;-1.00;99.90;;;;;;2069658;28;20678;-70
2021/01/02 15:52:23;;;;;;;14.30;9.40;;;-1.10;99.90;;;;;;2069852;28;20240;-69
2021/01/02 15:53:24;;;;;;;18.83;13.18;;;-1.10;99.90;;;;;;2063563;28;20735;-70
2021/01/02 15:54:25;;;;;;;19.00;11.70;;;-1.10;99.90;;;;;;2097108;28;20178;-70
2021/01/02 15:55:25;;;;;;;16.67;10.33;;;-1.10;99.90;;;;;;2055127;28;20179;-70
2021/01/02 15:56:26;;;;;;;19.87;11.00;;;-1.10;99.90;;;;;;2062392;28;20188;-70
2021/01/02 15:57:27;;;;;;;17.87;11.57;;;-1.10;99.90;;;;;;2054317;28;20263;-70
2021/01/02 15:58:28;;;;;;;14.75;9.82;;;-1.10;99.90;;;;;;2062568;28;20608;-71
2021/01/02 15:59:30;;;;;;;16.70;9.93;;;-1.10;99.90;;;;;;2102787;23;20189;-72
2021/01/02 16:00:31;;;;;;;15.15;10.10;;;-1.10;99.90;;;;;;2053936;28;20210;-73
2021/01/02 16:01:39;;;;;;;18.20;10.50;;;-1.20;99.90;;;;;;2055546;28;20183;-73
2021/01/02 16:02:39;;;;;;;19.98;11.88;;;-1.20;99.90;;;;;;2042759;28;20249;-72
2021/01/02 16:03:40;;;;;;;21.40;12.03;;;-1.10;99.90;;;;;;2047850;29;20672;-74
2021/01/02 16:04:41;;;;;;;24.05;13.02;;;-1.20;99.90;;;;;;2055857;28;20289;-74
2021/01/02 16:05:42;;;;;;;20.10;12.50;;;-1.20;99.90;;;;;;2047886;29;20191;-74
2021/01/02 16:06:44;;;;;;;14.17;9.47;;;-1.20;99.90;;;;;;2047924;29;20273;-74
2021/01/02 16:07:44;;;;;;;15.88;10.07;;;-1.20;99.90;;;;;;2047795;28;20429;-75
2021/01/02 16:08:45;;;;;;;16.10;10.23;;;-1.20;99.90;;;;;;2056515;28;20653;-74
2021/01/02 16:09:50;;;;;;;17.02;10.45;;;-1.20;99.90;;;;;;2061157;28;20193;-74
2021/01/02 16:10:56;;;;;;;13.05;9.10;;;-1.10;99.90;;;;;;2057240;28;20174;-74
2021/01/02 16:11:59;;;;;;;13.40;8.82;;;-1.10;99.90;;;;;;2055569;28;20273;-74
2021/01/02 16:13:00;;;;;;;17.00;9.80;;;-1.10;99.90;;;;;;2048097;28;20292;-73
2021/01/02 16:14:01;;;;;;;14.87;9.63;;;-1.10;99.90;;;;;;2047797;29;20272;-73
2021/01/02 16:15:03;;;;;;;17.20;10.18;;;-1.10;99.90;;;;;;2039993;29;20180;-73
2021/01/02 16:16:04;;;;;;;15.93;9.95;;;-1.10;99.90;;;;;;2039990;28;20188;-73
2021/01/02 16:17:06;;;;;;;12.98;9.32;;;-1.10;99.90;;;;;;2047949;28;20191;-73
2021/01/02 16:18:06;;;;;;;16.67;10.05;;;-1.10;99.90;;;;;;2055608;28;20193;-72
2021/01/02 16:19:07;;;;;;;14.83;9.90;;;-1.10;99.90;;;;;;2055941;28;20657;-73
2021/01/02 16:20:08;;;;;;;14.40;9.45;;;-1.10;99.90;;;;;;2047779;28;20195;-73
2021/01/02 16:21:09;;;;;;;15.70;10.60;;;-1.10;99.90;;;;;;2055607;28;20179;-73
2021/01/02 16:22:10;;;;;;;13.37;9.40;;;-1.10;99.90;;;;;;2055676;28;20221;-72
2021/01/02 16:23:11;;;;;;;30.23;21.95;;;-1.10;99.90;;;;;;2055679;28;20998;-72
2021/01/02 16:24:14;;;;;;;20.20;15.17;;;-1.10;99.90;;;;;;2056333;28;20281;-72
2021/01/02 16:25:15;;;;;;;17.48;12.23;;;-1.20;99.90;;;;;;2055718;28;20596;-73
2021/01/02 16:26:15;;;;;;;20.10;13.70;;;-1.20;99.90;;;;;;2047712;29;20187;-73
2021/01/02 16:27:16;;;;;;;16.87;11.57;;;-1.20;99.90;;;;;;2055820;28;20573;-73
2021/01/02 16:28:18;;;;;;;16.03;10.77;;;-1.10;99.90;;;;;;2047217;29;20190;-72
2021/01/02 16:29:27;;;;;;;15.13;9.93;;;-1.10;99.90;;;;;;2040137;28;20253;-71
2021/01/02 16:30:27;;;;;;;15.07;9.70;;;-1.10;99.90;;;;;;2055824;28;20201;-71
2021/01/02 16:31:42;;;;;;;17.43;10.73;;;-1.10;99.90;;;;;;2052436;28;20692;-72
2021/01/02 16:32:43;;;;;;;16.80;10.52;;;-1.10;99.90;;;;;;2049315;28;20209;-71